Time;durP1;ratioP1;P1;durP2;ratioP2;P2;SDS_P1;SDS_P2;PMS_P1;PMS_P2;Temp;Humidity;BMP_temperature;BMP_pressure;BME280_temperature;BME280_humidity;BME280_pressure;Samples;Min_cycle;Max_cycle;Signal;HPM_P1;HPM_P2
2021/08/09 00:00:40;;;;;;;4.90;2.67;;;;;;;16.58;70.96;100166.50;5052481;28;20494;-62
2021/08/09 00:03:08;;;;;;;5.70;2.70;;;;;;;16.62;69.98;100164.59;5052784;28;20049;-62
2021/08/09 00:05:38;;;;;;;4.22;2.85;;;;;;;16.58;70.13;100160.88;5052848;28;20053;-62
2021/08/09 00:08:06;;;;;;;8.38;2.67;;;;;;;16.71;69.77;100167.22;5052773;28;20052;-62
2021/08/09 00:10:34;;;;;;;6.43;2.95;;;;;;;16.62;70.13;100164.59;5052869;28;20059;-62
2021/08/09 00:13:01;;;;;;;5.25;2.80;;;;;;;16.65;69.67;100154.59;5052366;28;20057;-62
2021/08/09 00:15:29;;;;;;;5.97;2.50;;;;;;;16.68;69.47;100159.53;5052327;28;20056;-62
2021/08/09 00:17:58;;;;;;;5.90;2.17;;;;;;;16.60;70.16;100152.88;5052745;28;20053;-62
2021/08/09 00:20:25;;;;;;;4.47;2.28;;;;;;;16.72;69.08;100154.00;5052669;28;20064;-62
2021/08/09 00:22:53;;;;;;;5.05;2.70;;;;;;;16.72;68.62;100159.63;5052695;28;20049;-62
2021/08/09 00:25:20;;;;;;;5.30;2.25;;;;;;;16.57;69.61;100161.25;5051493;28;20053;-62
2021/08/09 00:27:47;;;;;;;4.05;2.33;;;;;;;16.63;69.56;100151.34;5052491;28;20057;-62
2021/08/09 00:30:15;;;;;;;4.10;2.28;;;;;;;16.63;69.88;100160.63;5052596;28;20071;-62
2021/08/09 00:32:43;;;;;;;5.20;2.60;;;;;;;16.73;69.26;100164.06;5052639;28;20045;-62
2021/08/09 00:35:12;;;;;;;4.50;2.40;;;;;;;16.86;69.11;100159.97;5052494;28;20057;-62
2021/08/09 00:37:39;;;;;;;5.53;2.65;;;;;;;16.92;68.62;100152.88;5052305;28;20524;-62
2021/08/09 00:40:08;;;;;;;5.10;2.47;;;;;;;16.87;68.71;100158.81;5050701;28;20064;-62
2021/08/09 00:42:36;;;;;;;4.32;2.17;;;;;;;16.95;68.43;100157.00;5052587;28;20064;-62
2021/08/09 00:45:04;;;;;;;4.00;2.40;;;;;;;16.92;68.69;100155.72;5052498;28;20407;-62
2021/08/09 00:47:31;;;;;;;4.53;2.25;;;;;;;16.88;68.53;100154.81;5052380;28;20485;-60
2021/08/09 00:49:58;;;;;;;4.25;2.40;;;;;;;16.84;68.40;100162.38;5055373;28;20049;-62
2021/08/09 00:52:27;;;;;;;7.03;2.28;;;;;;;16.91;68.65;100162.53;5056414;28;20060;-62
2021/08/09 00:54:54;;;;;;;5.93;2.20;;;;;;;16.72;68.93;100162.44;5055261;28;20060;-62
2021/08/09 00:57:22;;;;;;;4.75;2.20;;;;;;;16.96;67.74;100159.41;5056528;28;20049;-62
2021/08/09 00:59:49;;;;;;;4.68;2.40;;;;;;;17.09;67.06;100170.56;5056339;28;20064;-62
2021/08/09 01:02:16;;;;;;;4.70;2.13;;;;;;;17.02;67.77;100174.03;5056803;28;20068;-63
2021/08/09 01:04:44;;;;;;;4.45;2.20;;;;;;;17.00;67.46;100179.22;5056054;28;20068;-63
2021/08/09 01:07:11;;;;;;;4.60;2.10;;;;;;;16.91;67.59;100173.78;5056410;28;20053;-63
2021/08/09 01:09:48;;;;;;;4.65;2.05;;;;;;;17.01;67.79;100189.31;5055734;28;20049;-63
2021/08/09 01:12:19;;;;;;;5.03;2.03;;;;;;;16.92;67.20;100178.22;5056088;28;20397;-63
2021/08/09 01:14:59;;;;;;;4.60;2.35;;;;;;;17.00;66.66;100184.84;5056094;28;20049;-63
2021/08/09 01:17:31;;;;;;;4.53;2.15;;;;;;;16.95;68.12;100193.56;5056142;28;20053;-63
2021/08/09 01:20:16;;;;;;;5.95;2.00;;;;;;;16.93;68.19;100193.94;5053541;28;20057;-63
2021/08/09 01:22:51;;;;;;;4.47;2.30;;;;;;;17.08;67.57;100185.84;5055727;28;20072;-63
2021/08/09 01:25:26;;;;;;;3.22;1.77;;;;;;;16.87;68.05;100194.56;5055267;28;20057;-63
2021/08/09 01:27:57;;;;;;;4.88;2.42;;;;;;;16.96;68.02;100193.19;5055896;28;20053;-63
2021/08/09 01:30:27;;;;;;;4.57;2.22;;;;;;;17.04;67.19;100189.38;5055640;28;20410;-63
2021/08/09 01:32:57;;;;;;;3.90;2.22;;;;;;;16.84;68.13;100191.31;5055911;28;20053;-63
2021/08/09 01:35:26;;;;;;;4.63;2.38;;;;;;;16.71;68.45;100188.91;5055772;28;20064;-63
2021/08/09 01:37:58;;;;;;;3.28;2.08;;;;;;;16.79;68.44;100194.34;5055565;28;20060;-63
2021/08/09 01:40:27;;;;;;;4.43;1.85;;;;;;;16.87;67.40;100195.38;5054770;28;20052;-63
2021/08/09 01:42:56;;;;;;;5.63;2.13;;;;;;;16.92;67.65;100195.09;5055875;28;20049;-63
2021/08/09 01:45:24;;;;;;;6.05;2.40;;;;;;;16.86;68.02;100193.72;5055395;28;20049;-63
2021/08/09 01:47:56;;;;;;;3.13;2.05;;;;;;;16.85;67.82;100197.75;5055959;28;20398;-63
2021/08/09 01:50:24;;;;;;;4.60;2.40;;;;;;;16.80;67.74;100198.84;5055196;28;20053;-63
2021/08/09 01:52:52;;;;;;;4.68;2.42;;;;;;;16.70;68.09;100198.53;5054818;28;20057;-63
2021/08/09 01:55:20;;;;;;;3.20;1.92;;;;;;;16.57;68.78;100197.81;5055134;28;20061;-63
2021/08/09 01:57:47;;;;;;;2.90;1.83;;;;;;;16.57;68.30;100204.25;5055335;28;20397;-63
2021/08/09 02:00:19;;;;;;;3.70;2.00;;;;;;;16.49;68.56;100208.03;5054472;28;20063;-63
2021/08/09 02:02:48;;;;;;;4.38;2.00;;;;;;;16.54;68.73;100198.53;5055346;28;20052;-63
2021/08/09 02:05:17;;;;;;;4.63;2.07;;;;;;;16.22;69.96;100204.91;5055472;28;20049;-63
2021/08/09 02:07:47;;;;;;;5.22;2.08;;;;;;;16.39;69.44;100200.94;5054845;28;20494;-63
2021/08/09 02:10:18;;;;;;;4.82;2.20;;;;;;;16.46;69.14;100196.69;5054868;28;20053;-63
2021/08/09 02:12:50;;;;;;;5.40;2.58;;;;;;;16.30;69.49;100202.31;5055392;28;20075;-63
2021/08/09 02:15:29;;;;;;;4.28;2.03;;;;;;;16.32;69.41;100202.78;5054196;28;20052;-63
2021/08/09 02:18:04;;;;;;;5.05;2.00;;;;;;;16.37;69.38;100197.69;5054874;28;20052;-62
2021/08/09 02:20:35;;;;;;;4.45;2.08;;;;;;;16.42;69.20;100207.84;5055312;28;20060;-62
2021/08/09 02:23:06;;;;;;;4.05;1.90;;;;;;;16.31;69.59;100204.75;5054951;28;20410;-62
2021/08/09 02:25:39;;;;;;;4.13;2.00;;;;;;;16.24;69.68;100204.56;5053956;28;20049;-62
2021/08/09 02:28:18;;;;;;;4.45;2.30;;;;;;;16.20;70.11;100207.25;5054716;28;20060;-62
2021/08/09 02:30:51;;;;;;;3.90;2.55;;;;;;;16.28;69.14;100213.09;5054801;28;20052;-62
2021/08/09 02:33:19;;;;;;;4.50;1.90;;;;;;;16.23;69.68;100211.34;5054996;28;20379;-62
2021/08/09 02:35:48;;;;;;;9.65;2.53;;;;;;;16.09;70.05;100199.72;5054646;28;20489;-62
2021/08/09 02:38:16;;;;;;;7.80;2.50;;;;;;;16.03;70.25;100207.59;5046001;28;20536;-62
2021/08/09 02:40:43;;;;;;;3.90;2.13;;;;;;;15.90;70.12;100208.81;5036519;28;20414;-61
2021/08/09 02:43:13;;;;;;;4.13;2.17;;;;;;;15.87;70.70;100195.47;5044739;28;20099;-62
2021/08/09 02:45:43;;;;;;;3.85;2.22;;;;;;;15.85;71.03;100197.81;5054417;28;20406;-61
2021/08/09 02:48:11;;;;;;;3.45;2.20;;;;;;;16.00;70.65;100192.28;5054606;28;20055;-61
2021/08/09 02:50:40;;;;;;;4.95;2.10;;;;;;;16.01;70.49;100198.69;5054429;28;20414;-61
2021/08/09 02:53:07;;;;;;;3.95;1.92;;;;;;;16.05;70.25;100190.38;5052631;28;20391;-62
2021/08/09 02:55:36;;;;;;;3.13;1.98;;;;;;;16.10;70.12;100190.91;5054206;28;20049;-62
2021/08/09 02:58:07;;;;;;;6.17;2.10;;;;;;;16.14;69.91;100186.22;5053977;28;20076;-62
2021/08/09 03:00:35;;;;;;;4.00;2.20;;;;;;;16.21;69.50;100191.22;5054162;28;20060;-62
2021/08/09 03:03:03;;;;;;;5.70;2.40;;;;;;;16.22;69.84;100185.25;5053834;28;20056;-61
2021/08/09 03:05:33;;;;;;;4.75;2.22;;;;;;;16.30;69.69;100183.44;5054163;28;20049;-62
2021/08/09 03:08:01;;;;;;;3.58;2.13;;;;;;;16.35;69.82;100188.78;5052953;28;20071;-62
2021/08/09 03:10:28;;;;;;;4.15;2.17;;;;;;;16.44;69.48;100194.25;5053912;28;20477;-62
2021/08/09 03:12:57;;;;;;;5.60;2.90;;;;;;;16.49;69.87;100193.19;5052854;28;20492;-62
2021/08/09 03:15:24;;;;;;;4.82;2.42;;;;;;;16.50;70.36;100187.16;5053351;28;20064;-62
2021/08/09 03:17:52;;;;;;;5.05;2.13;;;;;;;16.55;70.55;100189.72;5053982;28;20079;-62
2021/08/09 03:20:20;;;;;;;6.45;2.90;;;;;;;16.59;70.13;100184.22;5053392;28;20049;-62
2021/08/09 03:22:49;;;;;;;4.20;2.28;;;;;;;16.64;70.16;100189.56;5052496;28;20057;-61
2021/08/09 03:25:16;;;;;;;5.63;2.30;;;;;;;16.53;69.32;100192.09;5035871;28;20479;-62
2021/08/09 03:27:43;;;;;;;4.55;2.20;;;;;;;16.57;69.40;100201.44;5033724;28;20057;-60
2021/08/09 03:30:16;;;;;;;4.75;2.17;;;;;;;16.67;68.88;100202.06;5033799;28;20049;-61
2021/08/09 03:32:44;;;;;;;4.05;2.15;;;;;;;16.63;68.97;100208.44;5033433;28;20088;-62
2021/08/09 03:35:11;;;;;;;4.47;2.30;;;;;;;16.64;68.78;100212.84;5033195;28;20510;-62
2021/08/09 03:37:38;;;;;;;5.35;2.22;;;;;;;16.68;68.07;100203.72;5032990;28;20068;-62
2021/08/09 03:40:09;;;;;;;5.57;2.17;;;;;;;16.55;67.71;100206.59;5050154;28;20115;-62
2021/08/09 03:42:36;;;;;;;3.08;1.85;;;;;;;16.44;68.57;100211.09;5053673;28;20056;-62
2021/08/09 03:45:05;;;;;;;4.03;1.98;;;;;;;16.29;69.18;100209.09;5053038;28;20057;-62
2021/08/09 03:47:32;;;;;;;4.75;1.90;;;;;;;16.18;69.09;100208.81;5053176;28;20494;-62
2021/08/09 03:50:02;;;;;;;4.38;1.80;;;;;;;16.22;69.14;100207.72;5053128;28;20391;-62
2021/08/09 03:52:30;;;;;;;6.53;2.10;;;;;;;16.36;68.97;100214.94;5053536;28;20045;-62
2021/08/09 03:54:57;;;;;;;3.70;2.20;;;;;;;16.36;68.87;100221.34;5051888;28;20379;-61
2021/08/09 03:57:26;;;;;;;8.98;3.33;;;;;;;16.41;68.62;100217.47;5053180;28;20409;-61
2021/08/09 03:59:53;;;;;;;3.80;1.88;;;;;;;16.30;68.56;100213.56;5053241;28;20059;-61
2021/08/09 04:02:28;;;;;;;4.28;2.15;;;;;;;16.41;68.67;100220.28;5051573;28;20561;-62
2021/08/09 04:04:57;;;;;;;5.55;2.30;;;;;;;16.47;68.41;100216.03;5052728;28;20056;-61
2021/08/09 04:07:27;;;;;;;6.18;2.13;;;;;;;16.41;68.83;100221.09;5053037;28;20057;-62
2021/08/09 04:09:55;;;;;;;6.45;2.40;;;;;;;16.41;68.83;100218.28;5052782;28;20087;-62
2021/08/09 04:12:23;;;;;;;3.92;2.15;;;;;;;16.35;68.78;100213.28;5052605;28;20049;-62
2021/08/09 04:14:51;;;;;;;4.10;2.00;;;;;;;16.32;68.99;100216.81;5051738;28;20052;-62
2021/08/09 04:17:19;;;;;;;6.03;2.22;;;;;;;16.37;68.82;100216.56;5052964;28;20406;-62
2021/08/09 04:19:46;;;;;;;5.43;2.25;;;;;;;16.45;68.58;100218.38;5052765;28;20068;-62
2021/08/09 04:22:16;;;;;;;3.60;1.83;;;;;;;16.50;68.73;100218.09;5052850;28;20049;-62
2021/08/09 04:24:44;;;;;;;4.00;2.05;;;;;;;16.60;67.76;100214.75;5051171;28;20052;-61
2021/08/09 04:27:11;;;;;;;4.72;2.20;;;;;;;16.61;67.85;100216.41;5052904;28;20394;-62
2021/08/09 04:29:38;;;;;;;4.35;1.80;;;;;;;16.45;68.25;100221.19;5052665;28;20440;-62
2021/08/09 04:32:16;;;;;;;3.20;1.70;;;;;;;16.46;67.63;100227.63;5052536;28;20068;-62
2021/08/09 04:34:44;;;;;;;4.10;2.20;;;;;;;16.42;67.11;100221.91;5052606;28;20402;-62
2021/08/09 04:37:11;;;;;;;5.75;1.80;;;;;;;16.50;67.96;100220.09;5052288;28;20068;-61
2021/08/09 04:39:38;;;;;;;4.40;2.00;;;;;;;16.41;67.78;100234.31;5051388;28;20060;-61
2021/08/09 04:42:06;;;;;;;5.38;1.85;;;;;;;16.28;67.69;100227.97;5052633;28;20072;-62
2021/08/09 04:44:33;;;;;;;5.40;1.98;;;;;;;16.39;68.16;100225.44;5052278;28;20080;-62
2021/08/09 04:47:01;;;;;;;3.95;1.90;;;;;;;16.25;68.37;100220.22;5052316;28;20057;-60
2021/08/09 04:49:30;;;;;;;4.82;1.90;;;;;;;16.32;67.90;100228.88;5052282;28;20049;-61
2021/08/09 04:51:57;;;;;;;3.75;1.70;;;;;;;16.31;68.25;100224.41;5052391;28;20049;-61
2021/08/09 04:54:24;;;;;;;2.88;1.80;;;;;;;16.34;68.40;100222.91;5051327;28;20064;-62
2021/08/09 04:56:52;;;;;;;5.05;2.00;;;;;;;16.26;68.27;100215.44;5052407;28;20052;-62
2021/08/09 04:59:21;;;;;;;6.18;2.20;;;;;;;16.20;68.69;100212.88;5052244;28;20060;-62
2021/08/09 05:01:49;;;;;;;5.35;2.00;;;;;;;16.41;67.74;100211.84;5052135;28;20049;-62
2021/08/09 05:04:16;;;;;;;4.95;2.50;;;;;;;16.41;67.85;100214.66;5052244;28;20049;-62
2021/08/09 05:06:46;;;;;;;4.35;1.58;;;;;;;16.49;67.29;100218.47;5052291;28;20049;-62
2021/08/09 05:09:14;;;;;;;3.42;1.85;;;;;;;16.45;67.76;100224.00;5051293;28;20056;-61
2021/08/09 05:15:13;;;;;;;3.92;1.70;;;;;;;16.58;67.05;100230.38;5047943;28;20385;-63
2021/08/09 05:17:41;;;;;;;4.90;1.77;;;;;;;16.62;67.20;100240.53;5049297;28;20057;-63
2021/08/09 05:20:09;;;;;;;4.80;2.10;;;;;;;16.73;66.92;100240.00;5050157;28;20049;-63
2021/08/09 05:22:39;;;;;;;4.63;1.70;;;;;;;16.90;66.09;100236.84;5041531;28;20060;-63
2021/08/09 05:25:09;;;;;;;;;;;;;;;16.97;65.60;100233.41;5050463;28;20048;-63
2021/08/09 05:27:36;;;;;;;4.22;1.98;;;;;;;17.09;65.80;100241.72;5050930;28;19932;-63
2021/08/09 05:30:05;;;;;;;7.20;2.42;;;;;;;17.10;65.79;100236.94;5049977;28;20052;-63
2021/08/09 05:32:35;;;;;;;3.60;1.70;;;;;;;17.22;65.41;100240.47;5052028;28;20053;-63
2021/08/09 05:35:03;;;;;;;3.20;1.77;;;;;;;17.54;64.16;100236.78;5050054;28;20166;-63
2021/08/09 05:37:32;;;;;;;3.70;1.88;;;;;;;17.56;64.38;100240.84;5054866;28;20049;-63
2021/08/09 05:40:02;;;;;;;3.78;1.65;;;;;;;17.51;64.55;100243.13;5055611;28;20052;-63
2021/08/09 05:42:30;;;;;;;4.72;2.17;;;;;;;17.88;63.16;100237.94;5055351;28;20064;-63
2021/08/09 05:44:59;;;;;;;3.22;1.52;;;;;;;17.85;62.89;100253.59;5054494;28;20409;-63
2021/08/09 05:47:27;;;;;;;3.67;1.70;;;;;;;17.66;63.69;100259.19;5054393;28;20486;-63
2021/08/09 05:49:56;;;;;;;3.25;1.58;;;;;;;18.08;62.83;100249.22;5055599;28;20068;-63
2021/08/09 05:52:24;;;;;;;4.30;1.60;;;;;;;17.93;62.72;100257.41;5055121;28;20057;-61
2021/08/09 05:54:51;;;;;;;3.22;1.77;;;;;;;18.10;62.10;100252.47;5054671;28;20501;-61
2021/08/09 05:57:20;;;;;;;3.97;1.83;;;;;;;18.13;61.95;100265.84;5055093;28;20065;-63
2021/08/09 05:59:48;;;;;;;5.38;2.00;;;;;;;18.25;61.88;100263.69;5054534;28;20053;-61
2021/08/09 06:02:15;;;;;;;3.45;1.60;;;;;;;18.22;60.97;100260.78;5051024;28;20389;-61
2021/08/09 06:04:43;;;;;;;3.97;1.40;;;;;;;18.23;61.83;100263.25;5053460;28;20053;-62
2021/08/09 06:07:14;;;;;;;5.97;1.75;;;;;;;18.41;60.74;100257.13;5055203;28;20056;-61
2021/08/09 06:09:41;;;;;;;3.38;1.92;;;;;;;18.22;60.63;100274.88;5054382;28;20052;-61
2021/08/09 06:12:09;;;;;;;3.17;1.60;;;;;;;18.29;60.30;100252.50;5055372;28;20053;-61
2021/08/09 06:14:38;;;;;;;2.40;1.30;;;;;;;18.28;60.37;100258.50;5055245;28;20064;-61
2021/08/09 06:17:07;;;;;;;5.45;1.60;;;;;;;18.39;60.77;100253.88;5052402;28;20045;-61
2021/08/09 06:19:35;;;;;;;2.97;1.40;;;;;;;18.69;59.83;100241.94;5055215;28;20517;-61
2021/08/09 06:22:03;;;;;;;5.40;1.70;;;;;;;18.74;59.35;100227.53;5054144;28;20418;-61
2021/08/09 06:24:30;;;;;;;3.28;1.40;;;;;;;18.44;60.95;100239.47;5053184;28;20486;-61
2021/08/09 06:26:57;;;;;;;4.13;1.70;;;;;;;18.65;60.13;100237.06;5054924;28;20069;-61
2021/08/09 06:29:26;;;;;;;4.40;1.70;;;;;;;18.76;60.24;100247.72;5054324;28;20056;-61
2021/08/09 06:31:54;;;;;;;3.83;1.50;;;;;;;18.63;59.95;100245.09;5054806;28;20494;-61
2021/08/09 06:34:22;;;;;;;4.03;1.40;;;;;;;18.74;59.87;100244.47;5050246;28;20053;-61
2021/08/09 06:36:51;;;;;;;4.88;1.45;;;;;;;18.63;59.99;100259.19;5041036;28;20502;-61
2021/08/09 06:39:20;;;;;;;;;;;;;;;18.65;59.25;100253.19;5054844;28;20068;-61
2021/08/09 06:41:48;;;;;;;4.22;1.80;;;;;;;19.01;58.85;100249.00;5054617;28;19932;-61
2021/08/09 06:44:16;;;;;;;3.97;1.45;;;;;;;19.31;58.60;100253.91;5055515;28;20052;-61
2021/08/09 06:46:43;;;;;;;2.95;1.50;;;;;;;19.54;57.65;100247.41;5053237;28;20041;-61
2021/08/09 06:49:12;;;;;;;3.35;1.40;;;;;;;19.54;57.76;100253.88;5053483;28;20057;-62
2021/08/09 06:51:39;;;;;;;3.58;1.58;;;;;;;19.65;57.67;100259.66;5053043;28;20414;-61
2021/08/09 06:54:06;;;;;;;3.38;1.92;;;;;;;19.33;58.47;100264.84;5042323;28;20057;-46
2021/08/09 06:56:34;;;;;;;2.10;1.50;;;;;;;19.08;58.87;100265.25;5051335;28;20072;-49
2021/08/09 06:59:01;;;;;;;4.88;1.48;;;;;;;19.08;59.41;100265.25;5051680;28;20107;-44
2021/08/09 07:01:28;;;;;;;3.67;1.50;;;;;;;19.43;58.46;100265.00;5051768;28;20052;-63
2021/08/09 07:03:56;;;;;;;4.07;1.42;;;;;;;19.52;58.78;100266.75;5050145;28;20061;-60
2021/08/09 07:06:25;;;;;;;4.47;1.50;;;;;;;19.48;57.61;100272.34;5051752;28;20049;-60
2021/08/09 07:08:53;;;;;;;4.88;2.22;;;;;;;19.19;58.37;100271.91;5051966;28;20052;-60
2021/08/09 07:11:22;;;;;;;5.35;1.63;;;;;;;19.45;58.85;100268.25;5051376;28;20052;-60
2021/08/09 07:13:51;;;;;;;3.17;1.65;;;;;;;19.52;58.08;100272.41;5049433;28;20061;-61
2021/08/09 07:16:19;;;;;;;7.10;1.67;;;;;;;19.52;57.88;100273.19;5051713;28;20421;-61
2021/08/09 07:18:46;;;;;;;4.75;1.65;;;;;;;19.59;57.81;100262.03;5051197;28;20055;-61
2021/08/09 07:21:13;;;;;;;2.78;1.40;;;;;;;19.84;57.49;100268.06;5051634;28;20056;-61
2021/08/09 07:23:42;;;;;;;4.38;1.55;;;;;;;20.04;57.08;100265.09;5047433;28;20473;-61
2021/08/09 07:26:10;;;;;;;3.15;1.42;;;;;;;20.26;55.97;100274.63;5051041;28;20044;-61
2021/08/09 07:28:37;;;;;;;4.57;1.45;;;;;;;20.36;55.67;100278.81;5051353;28;20053;-61
2021/08/09 07:31:05;;;;;;;3.92;1.52;;;;;;;20.20;56.13;100279.84;5051286;28;20124;-61
2021/08/09 07:33:32;;;;;;;3.50;1.77;;;;;;;20.42;55.58;100274.44;5050126;28;20045;-61
2021/08/09 07:36:01;;;;;;;3.22;1.30;;;;;;;20.58;54.99;100272.22;5048768;28;20071;-61
2021/08/09 07:38:28;;;;;;;4.65;1.48;;;;;;;20.40;55.63;100283.31;5044284;28;20067;-60
2021/08/09 07:40:57;;;;;;;3.63;1.48;;;;;;;20.71;54.53;100283.28;5051514;28;20049;-61
2021/08/09 07:43:24;;;;;;;3.25;1.42;;;;;;;21.04;53.78;100283.19;5036734;28;20435;-61
2021/08/09 07:45:51;;;;;;;2.55;1.50;;;;;;;21.25;53.09;100285.41;5051481;28;20052;-61
2021/08/09 07:48:19;;;;;;;2.15;1.40;;;;;;;21.64;52.14;100275.59;5050338;28;20060;-61
2021/08/09 07:50:46;;;;;;;3.35;1.40;;;;;;;22.43;49.66;100282.50;5052184;28;20052;-61
2021/08/09 07:53:14;;;;;;;4.03;1.52;;;;;;;22.57;50.23;100286.59;5044732;28;20057;-61
2021/08/09 07:55:41;;;;;;;2.75;1.25;;;;;;;22.84;48.43;100272.84;5051834;28;20401;-61
2021/08/09 07:58:10;;;;;;;3.00;1.42;;;;;;;22.24;49.16;100277.97;5051264;28;20363;-61
2021/08/09 08:00:38;;;;;;;4.60;1.88;;;;;;;22.18;49.54;100275.91;5052253;28;20053;-61
2021/08/09 08:03:07;;;;;;;3.70;1.50;;;;;;;22.47;48.85;100274.81;5043672;28;20392;-60
2021/08/09 08:05:34;;;;;;;4.00;1.50;;;;;;;22.36;49.73;100275.97;5050825;28;20053;-61
2021/08/09 08:08:01;;;;;;;3.35;1.20;;;;;;;22.37;48.90;100277.63;5045757;28;20482;-61
2021/08/09 08:10:28;;;;;;;3.15;1.60;;;;;;;22.73;47.62;100277.72;5050721;28;20083;-61
2021/08/09 08:12:56;;;;;;;3.22;1.63;;;;;;;22.84;47.58;100279.34;5048527;28;20053;-61
2021/08/09 08:15:25;;;;;;;2.20;1.10;;;;;;;23.13;47.69;100276.56;5042879;28;20060;-61
2021/08/09 08:17:52;;;;;;;3.83;1.60;;;;;;;23.06;46.99;100285.09;5033680;28;20054;-61
2021/08/09 08:20:19;;;;;;;3.63;1.50;;;;;;;23.06;47.32;100273.75;5050161;28;20056;-61
2021/08/09 08:22:47;;;;;;;2.53;1.30;;;;;;;23.16;46.66;100284.31;5050902;28;20053;-61
2021/08/09 08:25:14;;;;;;;2.95;1.50;;;;;;;23.49;46.59;100276.56;5050089;28;20056;-61
2021/08/09 08:27:41;;;;;;;2.20;1.20;;;;;;;24.40;44.43;100277.94;5050585;28;20049;-61
2021/08/09 08:30:09;;;;;;;4.57;1.52;;;;;;;25.43;42.28;100285.03;5050360;28;20060;-61
2021/08/09 08:32:38;;;;;;;3.85;1.40;;;;;;;26.70;39.84;100283.19;5050650;28;20060;-61
2021/08/09 08:35:08;;;;;;;2.90;1.25;;;;;;;27.04;38.48;100282.28;5045544;28;20063;-61
2021/08/09 08:37:35;;;;;;;3.17;1.58;;;;;;;27.88;37.31;100283.31;5050792;28;20056;-61
2021/08/09 08:40:03;;;;;;;3.10;1.50;;;;;;;28.30;36.23;100274.28;5052560;28;20053;-61
2021/08/09 08:42:31;;;;;;;3.38;1.40;;;;;;;28.76;34.51;100278.22;5052677;28;20391;-61
2021/08/09 08:44:58;;;;;;;3.15;1.33;;;;;;;28.88;33.79;100273.88;5052456;28;20063;-61
2021/08/09 08:47:29;;;;;;;2.42;1.00;;;;;;;28.88;34.03;100280.41;5052108;28;20076;-61
2021/08/09 08:50:00;;;;;;;2.67;1.50;;;;;;;29.63;33.04;100266.25;5052592;28;20057;-61
2021/08/09 08:52:28;;;;;;;2.30;1.33;;;;;;;29.81;32.73;100276.47;5052280;28;20072;-61
2021/08/09 08:54:55;;;;;;;3.00;1.25;;;;;;;31.17;30.77;100272.41;5052390;28;20052;-61
2021/08/09 08:57:24;;;;;;;3.45;1.40;;;;;;;32.38;29.20;100285.84;5049519;28;20041;-61
2021/08/09 08:59:51;;;;;;;3.00;1.30;;;;;;;33.53;26.90;100274.16;5032366;28;20073;-61
2021/08/09 09:02:32;;;;;;;2.40;1.27;;;;;;;33.76;27.13;100267.00;5032039;28;20057;-61
2021/08/09 09:05:13;;;;;;;2.80;1.40;;;;;;;34.00;26.37;100271.34;5032575;28;20068;-62
2021/08/09 09:07:42;;;;;;;3.28;1.45;;;;;;;32.36;27.91;100272.72;5051436;28;20417;-61
2021/08/09 09:10:17;;;;;;;3.65;1.50;;;;;;;32.21;27.89;100271.63;5052155;28;20052;-61
2021/08/09 09:12:45;;;;;;;3.45;1.60;;;;;;;32.65;27.04;100268.72;5055837;28;20053;-62
2021/08/09 09:15:13;;;;;;;2.72;1.42;;;;;;;32.89;27.37;100279.75;5055345;28;20053;-62
2021/08/09 09:17:41;;;;;;;3.25;1.55;;;;;;;33.62;25.96;100273.44;5048160;28;20052;-61
2021/08/09 09:20:28;;;;;;;3.92;1.63;;;;;;;35.22;24.94;100268.50;5054179;28;20060;-62
2021/08/09 09:23:13;;;;;;;3.97;1.55;;;;;;;35.67;23.60;100267.41;5056320;28;20049;-62
2021/08/09 09:25:40;;;;;;;3.53;1.73;;;;;;;35.76;23.83;100266.53;5053577;28;20115;-62
2021/08/09 09:28:22;;;;;;;3.40;1.60;;;;;;;35.03;22.85;100265.66;5055503;28;20482;-62
2021/08/09 09:30:50;;;;;;;2.00;1.40;;;;;;;35.91;22.76;100269.47;5055913;28;20049;-62
2021/08/09 09:33:17;;;;;;;3.17;1.70;;;;;;;34.42;24.66;100261.97;5055666;28;20052;-62
2021/08/09 09:35:50;;;;;;;4.15;1.30;;;;;;;35.30;22.96;100263.91;5053727;28;20064;-62
2021/08/09 09:38:19;;;;;;;2.70;1.38;;;;;;;35.89;21.66;100264.19;5055078;28;20048;-62
2021/08/09 09:40:46;;;;;;;;;;;;;;;34.93;22.13;100261.22;5056517;28;20080;-62
2021/08/09 09:43:16;;;;;;;2.72;1.60;;;;;;;35.69;21.87;100264.00;5055216;28;20352;-62
2021/08/09 09:45:51;;;;;;;2.47;1.30;;;;;;;35.70;21.47;100262.72;5054387;28;20041;-62
2021/08/09 09:48:30;;;;;;;3.60;1.92;;;;;;;35.03;22.34;100270.63;5054816;28;20053;-62
2021/08/09 09:51:09;;;;;;;1.85;1.50;;;;;;;36.10;21.70;100275.88;5055491;28;20053;-62
2021/08/09 09:53:36;;;;;;;3.17;1.80;;;;;;;34.69;23.50;100272.72;5042975;28;20064;-62
2021/08/09 09:56:04;;;;;;;4.38;1.75;;;;;;;33.49;24.55;100273.53;5045697;28;20060;-62
2021/08/09 09:58:34;;;;;;;2.93;1.10;;;;;;;33.91;23.99;100290.28;5046111;28;20498;-62
2021/08/09 10:01:02;;;;;;;3.92;1.27;;;;;;;32.90;24.75;100282.13;5054938;28;20478;-62
2021/08/09 10:03:31;;;;;;;2.97;1.20;;;;;;;33.62;24.60;100272.59;5050976;28;20053;-62
2021/08/09 10:06:00;;;;;;;2.80;1.60;;;;;;;33.77;23.81;100288.06;5055618;28;20049;-62
2021/08/09 10:08:30;;;;;;;4.13;1.70;;;;;;;33.01;24.46;100278.00;5054295;28;20055;-62
2021/08/09 10:10:59;;;;;;;4.82;1.30;;;;;;;32.44;26.03;100275.31;5054010;28;20048;-62
2021/08/09 10:13:28;;;;;;;3.72;1.30;;;;;;;31.06;27.61;100272.75;5035726;28;20060;-62
2021/08/09 10:15:58;;;;;;;4.43;1.60;;;;;;;31.12;27.90;100276.66;5039404;28;20067;-63
2021/08/09 10:18:28;;;;;;;3.38;1.30;;;;;;;31.14;27.57;100273.31;5053831;28;20052;-62
2021/08/09 10:20:56;;;;;;;3.53;1.40;;;;;;;30.61;28.24;100270.84;5053850;28;20056;-63
2021/08/09 10:23:42;;;;;;;2.22;1.30;;;;;;;28.58;30.53;100286.41;5053275;28;20061;-62
2021/08/09 10:26:11;;;;;;;4.68;1.38;;;;;;;27.89;32.18;100299.25;5055180;28;20049;-62
2021/08/09 10:29:04;;;;;;;3.50;1.30;;;;;;;27.84;32.86;100302.56;5054531;28;20049;-62
2021/08/09 10:31:35;;;;;;;2.67;1.20;;;;;;;27.67;33.78;100283.69;5054450;28;20060;-62
2021/08/09 10:34:04;;;;;;;2.20;1.30;;;;;;;27.97;32.47;100285.63;5052795;28;20056;-62
2021/08/09 10:37:07;;;;;;;4.10;1.30;;;;;;;27.17;34.07;100290.25;5053931;28;20072;-62
2021/08/09 10:39:55;;;;;;;3.97;1.42;;;;;;;27.12;34.49;100278.06;5035055;28;20060;-62
2021/08/09 10:42:30;;;;;;;2.88;1.35;;;;;;;26.61;35.54;100277.22;5027074;28;20064;-62
2021/08/09 10:44:58;;;;;;;3.67;1.30;;;;;;;26.57;35.74;100275.66;5054472;28;20053;-62
2021/08/09 10:47:55;;;;;;;2.33;1.20;;;;;;;26.09;37.25;100277.44;5053130;28;20049;-62
2021/08/09 10:50:52;;;;;;;2.53;1.60;;;;;;;26.58;36.79;100286.63;5054451;28;20061;-62
2021/08/09 10:53:45;;;;;;;4.68;2.10;;;;;;;27.16;35.43;100283.72;5019559;28;20431;-62
2021/08/09 10:56:47;;;;;;;2.42;1.67;;;;;;;29.29;30.99;100283.94;5054482;28;20053;-63
2021/08/09 10:59:42;;;;;;;3.22;1.95;;;;;;;30.08;30.29;100276.91;5053309;28;20099;-62
2021/08/09 11:02:22;;;;;;;3.03;1.60;;;;;;;30.74;29.20;100283.19;5053829;28;20486;-62
2021/08/09 11:05:31;;;;;;;3.65;1.38;;;;;;;29.12;31.11;100289.66;5053821;28;20053;-62
2021/08/09 11:08:30;;;;;;;2.97;1.30;;;;;;;27.40;34.64;100290.28;5032690;28;20056;-62
2021/08/09 11:11:00;;;;;;;2.83;1.40;;;;;;;26.28;36.74;100293.91;5049052;28;20378;-62
2021/08/09 11:13:30;;;;;;;6.28;1.50;;;;;;;26.06;39.25;100289.69;5053425;28;20053;-62
2021/08/09 11:15:59;;;;;;;5.80;1.77;;;;;;;25.39;45.59;100301.38;5052716;28;20045;-61
2021/08/09 11:18:28;;;;;;;5.45;1.58;;;;;;;24.59;45.26;100299.44;5052894;28;20059;-61
2021/08/09 11:21:03;;;;;;;4.25;1.83;;;;;;;24.37;46.58;100302.34;5054092;28;20049;-61
2021/08/09 11:23:36;;;;;;;5.43;1.75;;;;;;;24.75;46.47;100298.94;5044817;28;20067;-61
2021/08/09 11:26:04;;;;;;;3.45;1.80;;;;;;;25.51;45.65;100298.00;5042444;28;20052;-61
2021/08/09 11:28:33;;;;;;;5.15;2.00;;;;;;;25.22;44.25;100296.59;5053516;28;20045;-58
2021/08/09 11:31:03;;;;;;;3.85;1.40;;;;;;;25.19;44.28;100295.38;5054489;28;20056;-61
2021/08/09 11:33:33;;;;;;;3.88;1.55;;;;;;;24.96;42.68;100303.69;5052602;28;20053;-61
2021/08/09 11:36:02;;;;;;;4.45;1.40;;;;;;;24.71;44.08;100296.94;5053704;28;20048;-61
2021/08/09 11:38:43;;;;;;;4.35;1.70;;;;;;;24.33;46.96;100292.22;5053100;28;20056;-61
2021/08/09 11:41:12;;;;;;;4.05;1.50;;;;;;;24.90;44.90;100294.78;5053826;28;20053;-61
2021/08/09 11:43:41;;;;;;;3.70;1.60;;;;;;;25.90;40.60;100296.81;5052684;28;20063;-61